sensor_id;sensor_type;location;lat;lon;timestamp;P1;durP1;ratioP1;P2;durP2;ratioP2
56680;SDS011;42558;52.388;13.390;2023-02-15T00:01:09;47.69;;;23.18;;
56680;SDS011;42558;52.388;13.390;2023-02-15T00:03:40;48.64;;;23.37;;
56680;SDS011;42558;52.388;13.390;2023-02-15T00:06:10;54.34;;;24.70;;
56680;SDS011;42558;52.388;13.390;2023-02-15T00:08:40;53.01;;;24.32;;
56680;SDS011;42558;52.388;13.390;2023-02-15T00:11:14;50.35;;;25.08;;
56680;SDS011;42558;52.388;13.390;2023-02-15T00:13:44;52.82;;;23.75;;
56680;SDS011;42558;52.388;13.390;2023-02-15T00:16:13;50.54;;;23.75;;
56680;SDS011;42558;52.388;13.390;2023-02-15T00:18:41;54.53;;;24.32;;
56680;SDS011;42558;52.388;13.390;2023-02-15T00:21:10;53.20;;;25.08;;
56680;SDS011;42558;52.388;13.390;2023-02-15T00:23:38;56.05;;;24.89;;
56680;SDS011;42558;52.388;13.390;2023-02-15T00:26:11;51.68;;;24.89;;
56680;SDS011;42558;52.388;13.390;2023-02-15T00:28:41;52.82;;;22.99;;
56680;SDS011;42558;52.388;13.390;2023-02-15T00:31:12;51.87;;;23.56;;
56680;SDS011;42558;52.388;13.390;2023-02-15T00:33:42;53.01;;;24.13;;
56680;SDS011;42558;52.388;13.390;2023-02-15T00:36:12;57.76;;;23.75;;
56680;SDS011;42558;52.388;13.390;2023-02-15T00:38:43;49.02;;;22.42;;
56680;SDS011;42558;52.388;13.390;2023-02-15T00:41:13;50.35;;;22.99;;
56680;SDS011;42558;52.388;13.390;2023-02-15T00:43:42;58.33;;;24.89;;
56680;SDS011;42558;52.388;13.390;2023-02-15T00:46:12;53.20;;;24.32;;
56680;SDS011;42558;52.388;13.390;2023-02-15T00:48:42;52.82;;;22.61;;
56680;SDS011;42558;52.388;13.390;2023-02-15T00:51:12;51.68;;;24.13;;
56680;SDS011;42558;52.388;13.390;2023-02-15T00:53:41;54.72;;;23.37;;
56680;SDS011;42558;52.388;13.390;2023-02-15T00:56:09;54.72;;;23.56;;
56680;SDS011;42558;52.388;13.390;2023-02-15T00:58:37;57.00;;;24.89;;
56680;SDS011;42558;52.388;13.390;2023-02-15T01:01:09;52.44;;;24.89;;
56680;SDS011;42558;52.388;13.390;2023-02-15T01:03:37;50.73;;;22.61;;
56680;SDS011;42558;52.388;13.390;2023-02-15T01:06:06;50.73;;;23.37;;
56680;SDS011;42558;52.388;13.390;2023-02-15T01:08:34;57.95;;;24.89;;
56680;SDS011;42558;52.388;13.390;2023-02-15T01:11:09;53.39;;;25.08;;
56680;SDS011;42558;52.388;13.390;2023-02-15T01:13:40;53.96;;;23.18;;
56680;SDS011;42558;52.388;13.390;2023-02-15T01:16:08;57.38;;;24.13;;
56680;SDS011;42558;52.388;13.390;2023-02-15T01:18:37;63.46;;;23.18;;
56680;SDS011;42558;52.388;13.390;2023-02-15T01:21:16;54.15;;;23.94;;
56680;SDS011;42558;52.388;13.390;2023-02-15T01:23:49;58.52;;;24.89;;
56680;SDS011;42558;52.388;13.390;2023-02-15T01:26:19;53.01;;;24.13;;
56680;SDS011;42558;52.388;13.390;2023-02-15T01:28:49;61.75;;;25.08;;
56680;SDS011;42558;52.388;13.390;2023-02-15T01:31:20;56.81;;;24.89;;
56680;SDS011;42558;52.388;13.390;2023-02-15T01:33:50;52.63;;;23.56;;
56680;SDS011;42558;52.388;13.390;2023-02-15T01:36:20;56.24;;;24.32;;
56680;SDS011;42558;52.388;13.390;2023-02-15T01:38:50;57.38;;;26.60;;
56680;SDS011;42558;52.388;13.390;2023-02-15T01:41:20;61.56;;;25.84;;
56680;SDS011;42558;52.388;13.390;2023-02-15T01:43:54;57.38;;;25.46;;
56680;SDS011;42558;52.388;13.390;2023-02-15T01:46:40;50.35;;;22.99;;
56680;SDS011;42558;52.388;13.390;2023-02-15T01:49:23;47.31;;;21.28;;
56680;SDS011;42558;52.388;13.390;2023-02-15T01:51:56;52.63;;;22.04;;
56680;SDS011;42558;52.388;13.390;2023-02-15T01:54:31;57.38;;;24.70;;
56680;SDS011;42558;52.388;13.390;2023-02-15T01:57:10;57.19;;;26.60;;
56680;SDS011;42558;52.388;13.390;2023-02-15T01:59:47;68.78;;;30.59;;
56680;SDS011;42558;52.388;13.390;2023-02-15T02:02:21;71.25;;;29.07;;
56680;SDS011;42558;52.388;13.390;2023-02-15T02:04:59;83.41;;;31.73;;
56680;SDS011;42558;52.388;13.390;2023-02-15T02:07:40;75.81;;;30.59;;
56680;SDS011;42558;52.388;13.390;2023-02-15T02:12:49;62.32;;;26.03;;
56680;SDS011;42558;52.388;13.390;2023-02-15T02:15:52;59.09;;;27.17;;
56680;SDS011;42558;52.388;13.390;2023-02-15T02:18:41;66.12;;;26.60;;
56680;SDS011;42558;52.388;13.390;2023-02-15T02:31:18;63.27;;;30.02;;
56680;SDS011;42558;52.388;13.390;2023-02-15T02:34:16;64.98;;;27.55;;
56680;SDS011;42558;52.388;13.390;2023-02-15T02:37:06;74.86;;;29.64;;
56680;SDS011;42558;52.388;13.390;2023-02-15T02:39:51;73.34;;;30.97;;
56680;SDS011;42558;52.388;13.390;2023-02-15T02:42:44;77.90;;;32.49;;
56680;SDS011;42558;52.388;13.390;2023-02-15T02:45:36;87.40;;;35.15;;
56680;SDS011;42558;52.388;13.390;2023-02-15T02:48:15;89.68;;;35.15;;
56680;SDS011;42558;52.388;13.390;2023-02-15T02:50:51;93.86;;;36.48;;
56680;SDS011;42558;52.388;13.390;2023-02-15T02:53:20;101.08;;;38.95;;
56680;SDS011;42558;52.388;13.390;2023-02-15T02:55:54;105.83;;;36.67;;
56680;SDS011;42558;52.388;13.390;2023-02-15T02:58:45;99.94;;;39.90;;
56680;SDS011;42558;52.388;13.390;2023-02-15T03:01:28;93.67;;;36.48;;
56680;SDS011;42558;52.388;13.390;2023-02-15T03:04:14;99.56;;;38.19;;
56680;SDS011;42558;52.388;13.390;2023-02-15T03:06:51;95.57;;;37.81;;
56680;SDS011;42558;52.388;13.390;2023-02-15T03:09:37;104.88;;;39.33;;
56680;SDS011;42558;52.388;13.390;2023-02-15T03:12:40;106.97;;;41.23;;
56680;SDS011;42558;52.388;13.390;2023-02-15T03:15:18;103.74;;;40.47;;
56680;SDS011;42558;52.388;13.390;2023-02-15T03:17:59;102.22;;;40.47;;
56680;SDS011;42558;52.388;13.390;2023-02-15T03:20:35;94.05;;;38.00;;
56680;SDS011;42558;52.388;13.390;2023-02-15T03:23:11;100.70;;;39.52;;
56680;SDS011;42558;52.388;13.390;2023-02-15T03:25:51;100.13;;;38.00;;
56680;SDS011;42558;52.388;13.390;2023-02-15T03:28:35;102.79;;;40.09;;
56680;SDS011;42558;52.388;13.390;2023-02-15T03:31:11;109.25;;;38.38;;
56680;SDS011;42558;52.388;13.390;2023-02-15T03:33:50;115.33;;;41.99;;
56680;SDS011;42558;52.388;13.390;2023-02-15T03:36:30;103.74;;;41.80;;
56680;SDS011;42558;52.388;13.390;2023-02-15T03:42:31;111.15;;;40.28;;
56680;SDS011;42558;52.388;13.390;2023-02-15T03:45:11;100.89;;;35.91;;
56680;SDS011;42558;52.388;13.390;2023-02-15T03:47:47;96.90;;;37.05;;
56680;SDS011;42558;52.388;13.390;2023-02-15T03:50:27;113.05;;;41.99;;
56680;SDS011;42558;52.388;13.390;2023-02-15T03:53:21;106.21;;;41.04;;
56680;SDS011;42558;52.388;13.390;2023-02-15T03:55:54;109.44;;;41.42;;
56680;SDS011;42558;52.388;13.390;2023-02-15T03:58:24;89.49;;;33.25;;
56680;SDS011;42558;52.388;13.390;2023-02-15T04:01:34;101.65;;;39.71;;
56680;SDS011;42558;52.388;13.390;2023-02-15T04:04:32;107.54;;;41.99;;
56680;SDS011;42558;52.388;13.390;2023-02-15T04:07:06;105.45;;;42.18;;
56680;SDS011;42558;52.388;13.390;2023-02-15T04:09:37;98.80;;;39.33;;
56680;SDS011;42558;52.388;13.390;2023-02-15T04:12:25;107.35;;;39.52;;
56680;SDS011;42558;52.388;13.390;2023-02-15T04:14:55;101.46;;;39.71;;
56680;SDS011;42558;52.388;13.390;2023-02-15T04:17:44;97.47;;;38.19;;
56680;SDS011;42558;52.388;13.390;2023-02-15T04:20:10;91.39;;;39.90;;
56680;SDS011;42558;52.388;13.390;2023-02-15T04:22:57;100.13;;;38.76;;
56680;SDS011;42558;52.388;13.390;2023-02-15T04:25:45;99.75;;;40.85;;
56680;SDS011;42558;52.388;13.390;2023-02-15T04:28:15;91.01;;;38.00;;
56680;SDS011;42558;52.388;13.390;2023-02-15T04:30:46;99.75;;;38.00;;
56680;SDS011;42558;52.388;13.390;2023-02-15T04:33:16;95.76;;;39.71;;
56680;SDS011;42558;52.388;13.390;2023-02-15T04:35:46;85.31;;;37.81;;
56680;SDS011;42558;52.388;13.390;2023-02-15T04:38:15;94.81;;;37.43;;
56680;SDS011;42558;52.388;13.390;2023-02-15T04:40:44;92.91;;;37.05;;
56680;SDS011;42558;52.388;13.390;2023-02-15T04:43:15;93.29;;;38.19;;
56680;SDS011;42558;52.388;13.390;2023-02-15T04:45:51;97.47;;;36.67;;
56680;SDS011;42558;52.388;13.390;2023-02-15T04:48:20;87.78;;;36.29;;
56680;SDS011;42558;52.388;13.390;2023-02-15T04:50:49;92.34;;;38.57;;
56680;SDS011;42558;52.388;13.390;2023-02-15T04:53:19;93.67;;;37.24;;
56680;SDS011;42558;52.388;13.390;2023-02-15T04:55:49;95.00;;;36.67;;
56680;SDS011;42558;52.388;13.390;2023-02-15T04:58:19;99.94;;;39.52;;
56680;SDS011;42558;52.388;13.390;2023-02-15T05:00:49;105.64;;;38.76;;
56680;SDS011;42558;52.388;13.390;2023-02-15T05:03:17;98.04;;;38.57;;
56680;SDS011;42558;52.388;13.390;2023-02-15T05:05:46;101.65;;;40.85;;
56680;SDS011;42558;52.388;13.390;2023-02-15T05:08:15;104.31;;;37.43;;
56680;SDS011;42558;52.388;13.390;2023-02-15T05:10:43;105.45;;;40.85;;
56680;SDS011;42558;52.388;13.390;2023-02-15T05:13:11;109.25;;;38.57;;
56680;SDS011;42558;52.388;13.390;2023-02-15T05:15:40;91.39;;;37.05;;
56680;SDS011;42558;52.388;13.390;2023-02-15T05:18:11;94.43;;;35.53;;
56680;SDS011;42558;52.388;13.390;2023-02-15T05:20:40;103.74;;;37.43;;
56680;SDS011;42558;52.388;13.390;2023-02-15T05:23:08;93.29;;;35.72;;
56680;SDS011;42558;52.388;13.390;2023-02-15T05:25:37;95.00;;;36.48;;
56680;SDS011;42558;52.388;13.390;2023-02-15T05:28:26;91.77;;;34.96;;
56680;SDS011;42558;52.388;13.390;2023-02-15T05:33:46;79.04;;;31.92;;
56680;SDS011;42558;52.388;13.390;2023-02-15T05:36:14;86.83;;;34.58;;
56680;SDS011;42558;52.388;13.390;2023-02-15T05:38:43;91.20;;;36.86;;
56680;SDS011;42558;52.388;13.390;2023-02-15T05:41:14;112.67;;;40.28;;
56680;SDS011;42558;52.388;13.390;2023-02-15T05:43:43;91.01;;;37.24;;
56680;SDS011;42558;52.388;13.390;2023-02-15T05:46:13;95.19;;;35.34;;
56680;SDS011;42558;52.388;13.390;2023-02-15T05:48:43;88.16;;;35.34;;
56680;SDS011;42558;52.388;13.390;2023-02-15T05:51:13;81.13;;;32.11;;
56680;SDS011;42558;52.388;13.390;2023-02-15T05:53:44;75.62;;;27.36;;
56680;SDS011;42558;52.388;13.390;2023-02-15T05:56:14;63.65;;;22.80;;
56680;SDS011;42558;52.388;13.390;2023-02-15T05:58:43;75.05;;;30.59;;
56680;SDS011;42558;52.388;13.390;2023-02-15T06:01:15;80.37;;;32.68;;
56680;SDS011;42558;52.388;13.390;2023-02-15T06:03:45;84.93;;;34.77;;
56680;SDS011;42558;52.388;13.390;2023-02-15T06:06:13;81.89;;;37.05;;
56680;SDS011;42558;52.388;13.390;2023-02-15T06:08:42;88.92;;;35.34;;
56680;SDS011;42558;52.388;13.390;2023-02-15T06:11:10;84.36;;;31.54;;
56680;SDS011;42558;52.388;13.390;2023-02-15T06:13:38;76.76;;;31.54;;
56680;SDS011;42558;52.388;13.390;2023-02-15T06:16:07;69.54;;;27.17;;
56680;SDS011;42558;52.388;13.390;2023-02-15T06:18:35;71.44;;;29.07;;
56680;SDS011;42558;52.388;13.390;2023-02-15T06:21:04;70.87;;;26.41;;
56680;SDS011;42558;52.388;13.390;2023-02-15T06:23:32;66.31;;;27.74;;
56680;SDS011;42558;52.388;13.390;2023-02-15T06:26:00;67.26;;;28.88;;
56680;SDS011;42558;52.388;13.390;2023-02-15T06:28:29;72.01;;;29.45;;
56680;SDS011;42558;52.388;13.390;2023-02-15T06:30:57;77.33;;;34.01;;
56680;SDS011;42558;52.388;13.390;2023-02-15T06:33:26;75.62;;;30.40;;
56680;SDS011;42558;52.388;13.390;2023-02-15T06:35:54;62.89;;;25.65;;
56680;SDS011;42558;52.388;13.390;2023-02-15T06:38:23;65.74;;;27.74;;
56680;SDS011;42558;52.388;13.390;2023-02-15T06:40:51;70.49;;;30.59;;
56680;SDS011;42558;52.388;13.390;2023-02-15T06:43:19;68.78;;;29.26;;
56680;SDS011;42558;52.388;13.390;2023-02-15T06:45:48;57.95;;;24.70;;
56680;SDS011;42558;52.388;13.390;2023-02-15T06:48:16;62.70;;;25.65;;
56680;SDS011;42558;52.388;13.390;2023-02-15T06:50:45;63.46;;;27.93;;
56680;SDS011;42558;52.388;13.390;2023-02-15T06:53:13;57.95;;;27.17;;
56680;SDS011;42558;52.388;13.390;2023-02-15T06:55:41;67.07;;;31.16;;
56680;SDS011;42558;52.388;13.390;2023-02-15T06:58:10;68.97;;;29.83;;
56680;SDS011;42558;52.388;13.390;2023-02-15T07:00:38;69.92;;;31.92;;
56680;SDS011;42558;52.388;13.390;2023-02-15T07:03:07;62.70;;;26.22;;
56680;SDS011;42558;52.388;13.390;2023-02-15T07:05:35;62.89;;;25.84;;
56680;SDS011;42558;52.388;13.390;2023-02-15T07:08:04;61.75;;;24.89;;
56680;SDS011;42558;52.388;13.390;2023-02-15T07:10:32;60.42;;;25.08;;
56680;SDS011;42558;52.388;13.390;2023-02-15T07:13:00;60.80;;;25.46;;
56680;SDS011;42558;52.388;13.390;2023-02-15T07:15:29;65.17;;;27.55;;
56680;SDS011;42558;52.388;13.390;2023-02-15T07:17:57;71.25;;;30.02;;
56680;SDS011;42558;52.388;13.390;2023-02-15T07:20:26;61.56;;;26.22;;
56680;SDS011;42558;52.388;13.390;2023-02-15T07:22:54;55.86;;;22.80;;
56680;SDS011;42558;52.388;13.390;2023-02-15T07:25:22;60.42;;;25.27;;
56680;SDS011;42558;52.388;13.390;2023-02-15T07:27:58;64.03;;;28.31;;
56680;SDS011;42558;52.388;13.390;2023-02-15T07:30:29;68.78;;;30.21;;
56680;SDS011;42558;52.388;13.390;2023-02-15T07:32:59;60.99;;;26.79;;
56680;SDS011;42558;52.388;13.390;2023-02-15T07:35:53;69.73;;;28.69;;
56680;SDS011;42558;52.388;13.390;2023-02-15T07:38:29;63.84;;;26.41;;
56680;SDS011;42558;52.388;13.390;2023-02-15T07:41:06;68.59;;;30.02;;
56680;SDS011;42558;52.388;13.390;2023-02-15T07:43:40;59.09;;;27.17;;
56680;SDS011;42558;52.388;13.390;2023-02-15T07:46:14;53.39;;;22.80;;
56680;SDS011;42558;52.388;13.390;2023-02-15T07:48:46;66.12;;;27.93;;
56680;SDS011;42558;52.388;13.390;2023-02-15T07:51:14;62.70;;;25.08;;
56680;SDS011;42558;52.388;13.390;2023-02-15T07:53:42;61.18;;;25.08;;
56680;SDS011;42558;52.388;13.390;2023-02-15T07:56:12;46.93;;;18.62;;
56680;SDS011;42558;52.388;13.390;2023-02-15T07:58:42;55.86;;;23.94;;
56680;SDS011;42558;52.388;13.390;2023-02-15T08:01:25;51.68;;;22.61;;
56680;SDS011;42558;52.388;13.390;2023-02-15T08:04:04;50.54;;;22.42;;
56680;SDS011;42558;52.388;13.390;2023-02-15T08:06:35;50.35;;;22.23;;
56680;SDS011;42558;52.388;13.390;2023-02-15T08:09:07;58.90;;;27.36;;
56680;SDS011;42558;52.388;13.390;2023-02-15T08:11:38;63.08;;;28.31;;
56680;SDS011;42558;52.388;13.390;2023-02-15T08:14:17;61.56;;;25.84;;
56680;SDS011;42558;52.388;13.390;2023-02-15T08:16:51;64.79;;;26.41;;
56680;SDS011;42558;52.388;13.390;2023-02-15T08:19:27;60.99;;;26.22;;
56680;SDS011;42558;52.388;13.390;2023-02-15T08:22:04;63.08;;;26.98;;
56680;SDS011;42558;52.388;13.390;2023-02-15T08:24:36;63.27;;;26.79;;
56680;SDS011;42558;52.388;13.390;2023-02-15T08:27:05;59.85;;;24.89;;
56680;SDS011;42558;52.388;13.390;2023-02-15T08:29:36;69.16;;;24.89;;
56680;SDS011;42558;52.388;13.390;2023-02-15T08:32:09;65.36;;;29.07;;
56680;SDS011;42558;52.388;13.390;2023-02-15T08:34:40;48.64;;;20.52;;
56680;SDS011;42558;52.388;13.390;2023-02-15T08:37:10;60.61;;;26.98;;
56680;SDS011;42558;52.388;13.390;2023-02-15T08:39:37;60.04;;;25.65;;
56680;SDS011;42558;52.388;13.390;2023-02-15T08:42:08;63.27;;;28.50;;
56680;SDS011;42558;52.388;13.390;2023-02-15T08:44:39;65.17;;;28.69;;
56680;SDS011;42558;52.388;13.390;2023-02-15T08:47:09;64.60;;;27.55;;
56680;SDS011;42558;52.388;13.390;2023-02-15T08:49:38;65.93;;;27.74;;
56680;SDS011;42558;52.388;13.390;2023-02-15T08:52:08;65.74;;;27.93;;
56680;SDS011;42558;52.388;13.390;2023-02-15T08:54:38;73.91;;;29.45;;
56680;SDS011;42558;52.388;13.390;2023-02-15T08:57:08;63.27;;;28.88;;
56680;SDS011;42558;52.388;13.390;2023-02-15T08:59:39;55.67;;;26.22;;
56680;SDS011;42558;52.388;13.390;2023-02-15T09:02:10;69.16;;;29.64;;
56680;SDS011;42558;52.388;13.390;2023-02-15T09:04:39;70.49;;;28.12;;
56680;SDS011;42558;52.388;13.390;2023-02-15T09:07:09;71.82;;;30.40;;
56680;SDS011;42558;52.388;13.390;2023-02-15T09:09:39;73.91;;;30.59;;
56680;SDS011;42558;52.388;13.390;2023-02-15T09:12:11;72.39;;;27.93;;
56680;SDS011;42558;52.388;13.390;2023-02-15T09:14:44;70.49;;;31.92;;
56680;SDS011;42558;52.388;13.390;2023-02-15T09:17:11;79.80;;;33.44;;
56680;SDS011;42558;52.388;13.390;2023-02-15T09:19:41;72.96;;;29.64;;
56680;SDS011;42558;52.388;13.390;2023-02-15T09:22:11;69.16;;;29.45;;
56680;SDS011;42558;52.388;13.390;2023-02-15T09:24:41;67.45;;;29.45;;
56680;SDS011;42558;52.388;13.390;2023-02-15T09:27:10;68.78;;;29.64;;
56680;SDS011;42558;52.388;13.390;2023-02-15T09:29:40;82.46;;;32.68;;
56680;SDS011;42558;52.388;13.390;2023-02-15T09:32:13;66.88;;;31.16;;
56680;SDS011;42558;52.388;13.390;2023-02-15T09:34:42;80.75;;;33.25;;
56680;SDS011;42558;52.388;13.390;2023-02-15T09:37:12;63.27;;;29.83;;
56680;SDS011;42558;52.388;13.390;2023-02-15T09:39:43;68.21;;;31.54;;
56680;SDS011;42558;52.388;13.390;2023-02-15T09:42:29;70.11;;;30.97;;
56680;SDS011;42558;52.388;13.390;2023-02-15T09:45:29;63.27;;;25.46;;
56680;SDS011;42558;52.388;13.390;2023-02-15T09:48:20;54.34;;;23.75;;
56680;SDS011;42558;52.388;13.390;2023-02-15T10:00:18;79.61;;;32.68;;
56680;SDS011;42558;52.388;13.390;2023-02-15T10:03:22;69.73;;;30.02;;
56680;SDS011;42558;52.388;13.390;2023-02-15T10:06:28;70.30;;;30.21;;
56680;SDS011;42558;52.388;13.390;2023-02-15T10:11:58;71.82;;;32.30;;
56680;SDS011;42558;52.388;13.390;2023-02-15T10:23:25;73.72;;;31.92;;
56680;SDS011;42558;52.388;13.390;2023-02-15T10:28:51;72.20;;;32.49;;
56680;SDS011;42558;52.388;13.390;2023-02-15T10:31:42;72.39;;;31.73;;
56680;SDS011;42558;52.388;13.390;2023-02-15T10:40:44;59.28;;;30.78;;
56680;SDS011;42558;52.388;13.390;2023-02-15T10:43:27;59.09;;;26.03;;
56680;SDS011;42558;52.388;13.390;2023-02-15T10:49:16;63.46;;;28.69;;
56680;SDS011;42558;52.388;13.390;2023-02-15T10:52:15;56.62;;;26.98;;
56680;SDS011;42558;52.388;13.390;2023-02-15T11:01:22;72.77;;;33.25;;
56680;SDS011;42558;52.388;13.390;2023-02-15T11:07:00;63.46;;;30.59;;
56680;SDS011;42558;52.388;13.390;2023-02-15T11:09:42;71.82;;;32.30;;
56680;SDS011;42558;52.388;13.390;2023-02-15T11:12:24;67.64;;;32.49;;
56680;SDS011;42558;52.388;13.390;2023-02-15T11:15:04;69.92;;;34.20;;
56680;SDS011;42558;52.388;13.390;2023-02-15T11:17:45;65.55;;;33.25;;
56680;SDS011;42558;52.388;13.390;2023-02-15T11:20:28;69.35;;;34.39;;
56680;SDS011;42558;52.388;13.390;2023-02-15T11:23:06;64.98;;;30.59;;
56680;SDS011;42558;52.388;13.390;2023-02-15T11:25:51;61.94;;;31.92;;
56680;SDS011;42558;52.388;13.390;2023-02-15T11:31:44;64.60;;;31.92;;
56680;SDS011;42558;52.388;13.390;2023-02-15T11:34:23;57.57;;;28.50;;
56680;SDS011;42558;52.388;13.390;2023-02-15T11:37:28;59.28;;;30.40;;
56680;SDS011;42558;52.388;13.390;2023-02-15T11:43:35;65.93;;;31.54;;
56680;SDS011;42558;52.388;13.390;2023-02-15T11:46:12;54.34;;;30.21;;
56680;SDS011;42558;52.388;13.390;2023-02-15T11:48:42;60.99;;;31.16;;
56680;SDS011;42558;52.388;13.390;2023-02-15T11:51:19;53.39;;;26.98;;
56680;SDS011;42558;52.388;13.390;2023-02-15T11:53:52;60.42;;;27.17;;
56680;SDS011;42558;52.388;13.390;2023-02-15T11:56:25;52.06;;;28.69;;
56680;SDS011;42558;52.388;13.390;2023-02-15T11:58:58;48.26;;;26.79;;
56680;SDS011;42558;52.388;13.390;2023-02-15T12:04:12;52.44;;;27.74;;
56680;SDS011;42558;52.388;13.390;2023-02-15T12:07:23;52.82;;;25.27;;
56680;SDS011;42558;52.388;13.390;2023-02-15T12:12:47;43.13;;;23.56;;
56680;SDS011;42558;52.388;13.390;2023-02-15T12:15:30;43.32;;;24.70;;
56680;SDS011;42558;52.388;13.390;2023-02-15T12:18:01;54.15;;;27.17;;
56680;SDS011;42558;52.388;13.390;2023-02-15T12:20:33;51.68;;;26.98;;
56680;SDS011;42558;52.388;13.390;2023-02-15T12:23:12;57.00;;;29.83;;
56680;SDS011;42558;52.388;13.390;2023-02-15T12:25:54;50.73;;;27.17;;
56680;SDS011;42558;52.388;13.390;2023-02-15T12:28:38;51.87;;;27.74;;
56680;SDS011;42558;52.388;13.390;2023-02-15T12:31:28;53.01;;;27.36;;
56680;SDS011;42558;52.388;13.390;2023-02-15T12:34:35;52.63;;;27.36;;
56680;SDS011;42558;52.388;13.390;2023-02-15T12:37:23;38.00;;;20.90;;
56680;SDS011;42558;52.388;13.390;2023-02-15T12:39:59;39.33;;;21.47;;
56680;SDS011;42558;52.388;13.390;2023-02-15T12:42:42;41.80;;;21.66;;
56680;SDS011;42558;52.388;13.390;2023-02-15T12:45:31;48.07;;;23.75;;
56680;SDS011;42558;52.388;13.390;2023-02-15T12:50:43;40.47;;;23.75;;
56680;SDS011;42558;52.388;13.390;2023-02-15T12:53:36;41.23;;;21.47;;
56680;SDS011;42558;52.388;13.390;2023-02-15T12:56:08;42.75;;;23.56;;
56680;SDS011;42558;52.388;13.390;2023-02-15T12:58:39;34.77;;;20.90;;
56680;SDS011;42558;52.388;13.390;2023-02-15T13:04:04;39.14;;;22.23;;
56680;SDS011;42558;52.388;13.390;2023-02-15T13:06:36;37.24;;;20.71;;
56680;SDS011;42558;52.388;13.390;2023-02-15T13:09:25;32.11;;;18.43;;
56680;SDS011;42558;52.388;13.390;2023-02-15T13:12:20;35.91;;;19.38;;
56680;SDS011;42558;52.388;13.390;2023-02-15T13:14:51;35.91;;;18.81;;
56680;SDS011;42558;52.388;13.390;2023-02-15T13:17:30;34.01;;;19.19;;
56680;SDS011;42558;52.388;13.390;2023-02-15T13:20:18;34.39;;;19.76;;
56680;SDS011;42558;52.388;13.390;2023-02-15T13:23:02;41.23;;;21.28;;
56680;SDS011;42558;52.388;13.390;2023-02-15T13:25:43;41.42;;;19.19;;
56680;SDS011;42558;52.388;13.390;2023-02-15T13:28:20;54.53;;;22.99;;
56680;SDS011;42558;52.388;13.390;2023-02-15T13:30:54;62.32;;;27.93;;
56680;SDS011;42558;52.388;13.390;2023-02-15T13:33:33;45.41;;;23.18;;
56680;SDS011;42558;52.388;13.390;2023-02-15T13:36:26;37.81;;;20.52;;
56680;SDS011;42558;52.388;13.390;2023-02-15T13:42:26;33.82;;;18.43;;
56680;SDS011;42558;52.388;13.390;2023-02-15T13:57:18;28.69;;;15.77;;
56680;SDS011;42558;52.388;13.390;2023-02-15T14:22:10;29.26;;;18.81;;
56680;SDS011;42558;52.388;13.390;2023-02-15T14:28:08;30.59;;;17.10;;
56680;SDS011;42558;52.388;13.390;2023-02-15T14:30:48;29.07;;;16.34;;
56680;SDS011;42558;52.388;13.390;2023-02-15T14:33:25;32.30;;;18.24;;
56680;SDS011;42558;52.388;13.390;2023-02-15T14:36:07;30.21;;;17.29;;
56680;SDS011;42558;52.388;13.390;2023-02-15T14:38:58;27.55;;;15.01;;
56680;SDS011;42558;52.388;13.390;2023-02-15T14:41:49;24.89;;;15.20;;
56680;SDS011;42558;52.388;13.390;2023-02-15T14:44:42;24.13;;;14.63;;
56680;SDS011;42558;52.388;13.390;2023-02-15T14:47:40;18.43;;;11.21;;
56680;SDS011;42558;52.388;13.390;2023-02-15T14:50:45;16.53;;;10.83;;
56680;SDS011;42558;52.388;13.390;2023-02-15T14:53:33;18.05;;;11.40;;
56680;SDS011;42558;52.388;13.390;2023-02-15T15:01:33;19.38;;;11.78;;
56680;SDS011;42558;52.388;13.390;2023-02-15T15:04:13;19.57;;;11.59;;
56680;SDS011;42558;52.388;13.390;2023-02-15T15:07:20;19.95;;;10.64;;
56680;SDS011;42558;52.388;13.390;2023-02-15T15:10:53;17.67;;;11.40;;
56680;SDS011;42558;52.388;13.390;2023-02-15T15:19:10;20.52;;;11.40;;
56680;SDS011;42558;52.388;13.390;2023-02-15T15:47:38;19.76;;;11.21;;
56680;SDS011;42558;52.388;13.390;2023-02-15T15:50:15;18.24;;;10.64;;
56680;SDS011;42558;52.388;13.390;2023-02-15T15:52:52;19.19;;;10.64;;
56680;SDS011;42558;52.388;13.390;2023-02-15T15:55:29;20.90;;;11.59;;
56680;SDS011;42558;52.388;13.390;2023-02-15T15:58:06;17.10;;;10.26;;
56680;SDS011;42558;52.388;13.390;2023-02-15T16:00:50;17.48;;;11.02;;
56680;SDS011;42558;52.388;13.390;2023-02-15T16:03:23;16.72;;;10.45;;
56680;SDS011;42558;52.388;13.390;2023-02-15T16:05:52;18.81;;;11.59;;
56680;SDS011;42558;52.388;13.390;2023-02-15T16:08:34;21.66;;;10.64;;
56680;SDS011;42558;52.388;13.390;2023-02-15T16:11:19;15.96;;;10.07;;
56680;SDS011;42558;52.388;13.390;2023-02-15T16:13:52;16.72;;;9.50;;
56680;SDS011;42558;52.388;13.390;2023-02-15T16:16:27;18.62;;;10.64;;
56680;SDS011;42558;52.388;13.390;2023-02-15T16:18:58;18.43;;;10.64;;
56680;SDS011;42558;52.388;13.390;2023-02-15T16:21:31;20.14;;;10.83;;
56680;SDS011;42558;52.388;13.390;2023-02-15T16:27:16;18.62;;;11.02;;
56680;SDS011;42558;52.388;13.390;2023-02-15T16:33:13;18.62;;;11.21;;
56680;SDS011;42558;52.388;13.390;2023-02-15T16:35:58;19.95;;;11.02;;
56680;SDS011;42558;52.388;13.390;2023-02-15T16:41:13;19.38;;;11.40;;
56680;SDS011;42558;52.388;13.390;2023-02-15T16:44:00;25.27;;;12.35;;
56680;SDS011;42558;52.388;13.390;2023-02-15T16:46:43;22.99;;;11.97;;
56680;SDS011;42558;52.388;13.390;2023-02-15T16:49:21;24.32;;;14.06;;
56680;SDS011;42558;52.388;13.390;2023-02-15T16:51:56;22.61;;;12.54;;
56680;SDS011;42558;52.388;13.390;2023-02-15T16:54:31;26.22;;;13.11;;
56680;SDS011;42558;52.388;13.390;2023-02-15T16:57:03;22.80;;;12.92;;
56680;SDS011;42558;52.388;13.390;2023-02-15T16:59:41;21.47;;;12.73;;
56680;SDS011;42558;52.388;13.390;2023-02-15T17:02:30;21.28;;;12.54;;
56680;SDS011;42558;52.388;13.390;2023-02-15T17:05:21;20.90;;;12.73;;
56680;SDS011;42558;52.388;13.390;2023-02-15T17:10:37;22.42;;;11.97;;
56680;SDS011;42558;52.388;13.390;2023-02-15T17:13:15;20.71;;;10.64;;
56680;SDS011;42558;52.388;13.390;2023-02-15T17:21:01;16.91;;;10.26;;
56680;SDS011;42558;52.388;13.390;2023-02-15T17:23:43;16.91;;;8.93;;
56680;SDS011;42558;52.388;13.390;2023-02-15T17:31:54;18.24;;;10.07;;
56680;SDS011;42558;52.388;13.390;2023-02-15T17:40:27;18.81;;;10.64;;
56680;SDS011;42558;52.388;13.390;2023-02-15T17:43:01;19.19;;;11.40;;
56680;SDS011;42558;52.388;13.390;2023-02-15T17:45:33;22.23;;;12.35;;
56680;SDS011;42558;52.388;13.390;2023-02-15T17:48:05;17.86;;;11.40;;
56680;SDS011;42558;52.388;13.390;2023-02-15T17:50:35;22.23;;;11.78;;
56680;SDS011;42558;52.388;13.390;2023-02-15T17:53:08;21.09;;;11.02;;
56680;SDS011;42558;52.388;13.390;2023-02-15T17:55:38;20.14;;;13.49;;
56680;SDS011;42558;52.388;13.390;2023-02-15T17:58:16;23.18;;;13.30;;
56680;SDS011;42558;52.388;13.390;2023-02-15T18:00:54;23.75;;;13.68;;
56680;SDS011;42558;52.388;13.390;2023-02-15T18:03:50;20.14;;;12.73;;
56680;SDS011;42558;52.388;13.390;2023-02-15T18:06:41;22.42;;;14.06;;